Time;durP1;ratioP1;P1;durP2;ratioP2;P2;SDS_P1;SDS_P2;PMS_P1;PMS_P2;Temp;Humidity;BMP_temperature;BMP_pressure;BME280_temperature;BME280_humidity;BME280_pressure;Samples;Min_cycle;Max_cycle;Signal;HPM_P1;HPM_P2
2022/04/21 00:00:32;;;;;;;1.98;1.73;;;5.90;17.90;;;;;;4967261;28;34178;-78
2022/04/21 00:02:59;;;;;;;2.28;2.00;;;5.90;18.00;;;;;;4967178;28;34166;-77
2022/04/21 00:05:25;;;;;;;1.98;1.80;;;5.80;17.90;;;;;;4967236;28;34397;-78
2022/04/21 00:07:51;;;;;;;1.90;1.63;;;5.80;18.10;;;;;;4959215;28;36591;-78
2022/04/21 00:10:17;;;;;;;3.00;2.13;;;5.80;18.20;;;;;;4967191;28;34162;-78
2022/04/21 00:12:44;;;;;;;1.95;1.70;;;5.80;18.10;;;;;;4966619;28;34207;-78
2022/04/21 00:15:11;;;;;;;5.32;2.30;;;5.80;18.30;;;;;;4967034;28;34127;-78
2022/04/21 00:17:37;;;;;;;2.25;2.03;;;5.80;18.50;;;;;;4966793;28;36541;-78
2022/04/21 00:20:04;;;;;;;2.40;1.75;;;5.70;18.90;;;;;;4984346;28;34059;-78
2022/04/21 00:25:12;;;;;;;2.75;1.67;;;5.60;18.70;;;;;;4983602;28;34082;-78
2022/04/21 00:27:39;;;;;;;6.00;2.30;;;5.60;18.70;;;;;;4966414;28;36321;-78
2022/04/21 00:30:06;;;;;;;2.17;1.98;;;5.50;19.00;;;;;;4966841;28;34079;-78
2022/04/21 00:32:36;;;;;;;1.73;1.63;;;5.50;19.00;;;;;;4966835;28;34214;-78
2022/04/21 00:35:04;;;;;;;1.73;1.63;;;5.50;19.50;;;;;;4984518;28;34363;-78
2022/04/21 00:37:30;;;;;;;1.80;1.67;;;5.50;19.40;;;;;;4966210;28;35561;-78
2022/04/21 00:39:56;;;;;;;1.80;1.70;;;5.40;19.30;;;;;;4966888;28;34402;-78
2022/04/21 00:42:22;;;;;;;2.25;1.90;;;5.40;19.40;;;;;;4984432;28;34214;-78
2022/04/21 00:44:50;;;;;;;2.10;1.90;;;5.40;19.30;;;;;;4967331;28;34047;-78
2022/04/21 00:47:18;;;;;;;2.10;1.65;;;5.40;19.40;;;;;;4966736;28;35618;-78
2022/04/21 00:49:45;;;;;;;1.70;1.60;;;5.40;19.60;;;;;;4966964;28;34147;-78
2022/04/21 00:52:12;;;;;;;1.80;1.58;;;5.30;20.00;;;;;;4966843;28;34225;-77
2022/04/21 00:54:38;;;;;;;2.80;2.05;;;5.30;20.00;;;;;;4966788;28;34586;-77
2022/04/21 00:57:05;;;;;;;1.75;1.60;;;5.30;20.00;;;;;;4969899;28;35542;-77
2022/04/21 00:59:32;;;;;;;2.05;1.80;;;5.30;20.00;;;;;;4970030;28;34188;-77
2022/04/21 01:04:41;;;;;;;4.88;1.95;;;5.30;20.80;;;;;;4986716;28;34401;-77
2022/04/21 01:07:09;;;;;;;2.47;2.00;;;5.30;20.20;;;;;;4969655;28;35600;-77
2022/04/21 01:09:36;;;;;;;3.05;2.00;;;5.30;20.60;;;;;;4969490;28;34138;-77
2022/04/21 01:12:07;;;;;;;5.93;2.00;;;5.30;20.40;;;;;;4969572;28;34331;-77
2022/04/21 01:14:33;;;;;;;2.30;2.10;;;5.30;20.80;;;;;;4969603;28;34144;-77
2022/04/21 01:17:00;;;;;;;3.60;1.90;;;5.30;20.20;;;;;;4969427;28;35498;-78
2022/04/21 01:19:26;;;;;;;4.28;2.13;;;5.30;20.60;;;;;;4969898;28;34376;-78
2022/04/21 01:21:52;;;;;;;2.30;1.98;;;5.30;20.30;;;;;;4986285;28;34202;-78
2022/04/21 01:24:18;;;;;;;2.22;2.03;;;5.30;20.20;;;;;;4986366;28;34357;-77
2022/04/21 01:26:46;;;;;;;1.90;1.70;;;5.20;20.50;;;;;;4986505;28;34936;-78
2022/04/21 01:29:12;;;;;;;2.03;1.92;;;5.10;20.30;;;;;;4969658;28;34121;-78
2022/04/21 01:31:38;;;;;;;1.48;1.38;;;5.10;20.50;;;;;;4969554;28;34092;-78
2022/04/21 01:34:04;;;;;;;1.70;1.60;;;5.10;20.30;;;;;;4969910;28;34324;-78
2022/04/21 01:36:31;;;;;;;5.97;2.08;;;5.10;20.50;;;;;;4985573;28;36043;-78
2022/04/21 01:41:38;;;;;;;2.28;1.77;;;5.00;20.90;;;;;;4986453;28;34117;-78
2022/04/21 01:44:04;;;;;;;1.98;1.70;;;4.90;21.00;;;;;;4969503;28;34177;-78
2022/04/21 01:46:30;;;;;;;1.92;1.83;;;4.90;21.00;;;;;;4968209;28;36528;-78
2022/04/21 01:48:56;;;;;;;2.20;2.00;;;4.80;21.00;;;;;;4969577;28;34239;-78
2022/04/21 01:51:21;;;;;;;2.35;1.77;;;4.80;21.30;;;;;;4969534;28;34335;-78
2022/04/21 01:53:48;;;;;;;1.92;1.75;;;4.80;21.20;;;;;;4969851;28;34575;-78
2022/04/21 01:56:14;;;;;;;2.08;1.88;;;4.70;21.60;;;;;;4968996;28;35889;-78
2022/04/21 01:58:40;;;;;;;1.67;1.58;;;4.70;21.50;;;;;;4986255;28;34318;-78
2022/04/21 02:01:07;;;;;;;2.25;2.00;;;4.70;21.50;;;;;;4969261;28;34286;-78
2022/04/21 02:03:33;;;;;;;2.47;2.28;;;4.70;21.50;;;;;;4986525;28;34082;-78
2022/04/21 02:05:59;;;;;;;3.40;2.13;;;4.70;21.40;;;;;;4968352;28;36785;-77
2022/04/21 02:08:27;;;;;;;1.88;1.70;;;4.70;21.80;;;;;;4968409;28;34141;-78
2022/04/21 02:10:53;;;;;;;2.80;1.90;;;4.70;21.80;;;;;;4961108;28;34223;-77
2022/04/21 02:13:20;;;;;;;2.20;1.70;;;4.70;21.70;;;;;;4986340;28;34284;-78
2022/04/21 02:15:46;;;;;;;2.00;1.77;;;4.70;21.60;;;;;;4968896;28;36708;-78
2022/04/21 02:18:12;;;;;;;3.47;2.15;;;4.70;21.70;;;;;;4968943;28;34660;-77
2022/04/21 02:20:38;;;;;;;3.75;2.10;;;4.60;21.70;;;;;;4985138;28;34014;-78
2022/04/21 02:23:04;;;;;;;2.42;2.03;;;4.60;21.50;;;;;;4969091;28;34464;-78
2022/04/21 02:25:30;;;;;;;1.73;1.63;;;4.60;21.90;;;;;;4968234;28;36460;-78
2022/04/21 02:27:56;;;;;;;2.25;2.05;;;4.60;21.70;;;;;;4968832;28;34133;-77
2022/04/21 02:30:22;;;;;;;4.25;2.10;;;4.60;22.10;;;;;;4968875;28;34368;-77
2022/04/21 02:32:48;;;;;;;2.70;2.47;;;4.50;21.90;;;;;;4986091;28;34189;-78
2022/04/21 02:35:15;;;;;;;2.55;2.15;;;4.50;22.10;;;;;;4968544;28;35628;-77
2022/04/21 02:37:44;;;;;;;2.38;1.90;;;4.50;22.20;;;;;;4968791;28;34360;-77
2022/04/21 02:40:11;;;;;;;2.13;1.80;;;4.50;22.10;;;;;;4968410;28;34279;-78
2022/04/21 02:42:39;;;;;;;2.15;1.90;;;4.40;22.20;;;;;;4986029;28;34205;-78
2022/04/21 02:45:07;;;;;;;2.35;2.00;;;4.40;22.30;;;;;;4985461;28;35511;-78
2022/04/21 02:47:36;;;;;;;3.75;1.80;;;4.40;22.40;;;;;;4985759;28;34064;-78
2022/04/21 02:50:03;;;;;;;2.25;1.88;;;4.40;22.80;;;;;;4968324;28;34327;-78
2022/04/21 02:52:29;;;;;;;1.88;1.65;;;4.30;22.60;;;;;;4968168;28;34726;-78
2022/04/21 02:57:37;;;;;;;3.40;1.88;;;4.20;22.50;;;;;;4985056;28;34044;-78
2022/04/21 03:00:05;;;;;;;1.95;1.75;;;4.20;22.60;;;;;;4968270;28;34475;-78
2022/04/21 03:02:32;;;;;;;2.13;1.92;;;4.20;22.80;;;;;;4968413;28;34162;-79
2022/04/21 03:04:57;;;;;;;3.78;2.30;;;4.20;22.60;;;;;;4984606;28;34039;-77
2022/04/21 03:07:23;;;;;;;2.88;1.90;;;4.20;22.60;;;;;;4984800;28;34055;-78
2022/04/21 03:09:50;;;;;;;4.25;2.30;;;4.10;22.80;;;;;;4968037;28;34133;-78
2022/04/21 03:12:16;;;;;;;2.08;1.88;;;4.10;23.10;;;;;;4969126;28;34053;-78
2022/04/21 03:14:43;;;;;;;2.17;2.00;;;4.20;23.00;;;;;;4967765;28;35614;-78
2022/04/21 03:17:10;;;;;;;2.78;1.90;;;4.10;23.20;;;;;;4985384;28;34300;-77
2022/04/21 03:19:37;;;;;;;3.70;2.30;;;4.10;23.20;;;;;;4982887;28;34207;-78
2022/04/21 03:24:45;;;;;;;4.13;2.10;;;4.10;23.80;;;;;;4984235;28;34831;-78
2022/04/21 03:27:12;;;;;;;2.03;1.83;;;4.10;24.20;;;;;;4967914;28;34194;-78
2022/04/21 03:29:38;;;;;;;2.72;2.00;;;4.10;24.20;;;;;;4967589;28;34206;-78
2022/04/21 03:32:09;;;;;;;1.80;1.50;;;4.10;24.30;;;;;;4967943;28;34439;-78
2022/04/21 03:34:40;;;;;;;2.88;2.17;;;4.10;24.90;;;;;;4967234;28;36095;-78
2022/04/21 03:37:07;;;;;;;2.40;2.10;;;4.10;24.30;;;;;;4967601;28;34134;-78
2022/04/21 03:39:35;;;;;;;4.28;2.15;;;4.10;24.30;;;;;;4967963;28;34478;-78
2022/04/21 03:42:02;;;;;;;2.00;1.65;;;4.10;24.40;;;;;;4985416;28;34274;-78
2022/04/21 03:44:28;;;;;;;2.55;2.00;;;4.10;24.60;;;;;;4985267;28;34193;-78
2022/04/21 03:46:58;;;;;;;5.10;2.17;;;4.10;24.80;;;;;;4986304;28;34094;-78
2022/04/21 03:49:27;;;;;;;1.75;1.60;;;4.10;24.60;;;;;;4984865;28;34350;-78
2022/04/21 03:51:53;;;;;;;2.05;1.85;;;4.10;25.00;;;;;;4985332;28;34276;-78
2022/04/21 03:54:19;;;;;;;1.88;1.75;;;4.00;25.20;;;;;;4983697;28;35993;-78
2022/04/21 03:56:45;;;;;;;2.10;1.90;;;4.00;24.90;;;;;;4968521;28;34017;-78
2022/04/21 03:59:11;;;;;;;2.60;1.90;;;4.00;25.20;;;;;;4969010;28;34197;-78
2022/04/21 04:01:37;;;;;;;4.10;2.10;;;4.00;25.00;;;;;;4967544;28;34479;-78
2022/04/21 04:04:03;;;;;;;1.65;1.55;;;4.00;24.80;;;;;;4951278;28;35853;-78
2022/04/21 04:11:51;;;;;;;2.22;1.75;;;4.00;25.30;;;;;;4955079;28;34103;-78
2022/04/21 04:14:17;;;;;;;3.33;2.03;;;4.00;25.60;;;;;;4954368;28;34675;-78
2022/04/21 04:16:44;;;;;;;2.20;2.00;;;4.00;25.60;;;;;;4985315;28;34158;-78
2022/04/21 04:19:11;;;;;;;2.63;2.10;;;4.00;25.40;;;;;;4985486;28;34209;-78
2022/04/21 04:21:37;;;;;;;2.45;1.92;;;3.90;25.60;;;;;;4986343;28;34055;-78
2022/04/21 04:24:04;;;;;;;2.15;1.75;;;4.00;25.50;;;;;;4985373;28;35917;-78
2022/04/21 04:26:33;;;;;;;3.53;1.75;;;3.90;25.30;;;;;;4968417;28;34201;-79
2022/04/21 04:28:59;;;;;;;2.63;2.00;;;3.90;25.40;;;;;;4985238;28;34116;-78
2022/04/21 04:31:25;;;;;;;2.15;1.95;;;3.90;25.60;;;;;;4983662;28;34007;-78
2022/04/21 04:33:51;;;;;;;2.42;1.83;;;3.90;26.10;;;;;;4967449;28;36345;-78
2022/04/21 04:36:17;;;;;;;3.20;2.08;;;3.90;25.70;;;;;;4967549;28;34305;-78
2022/04/21 04:38:44;;;;;;;2.00;1.80;;;3.90;25.90;;;;;;4966689;28;34484;-78
2022/04/21 04:43:51;;;;;;;2.42;1.95;;;3.90;26.10;;;;;;4983238;28;34254;-78
2022/04/21 04:48:59;;;;;;;1.73;1.63;;;4.00;26.30;;;;;;4970024;28;34242;-78
2022/04/21 04:51:27;;;;;;;3.00;2.42;;;4.00;26.20;;;;;;4968438;28;34091;-78
2022/04/21 04:53:53;;;;;;;3.10;2.20;;;4.00;25.90;;;;;;4974522;28;35661;-78
2022/04/21 04:56:21;;;;;;;3.53;2.00;;;4.10;26.30;;;;;;4967664;28;34380;-78
2022/04/21 04:58:48;;;;;;;2.25;2.05;;;4.10;26.50;;;;;;4967441;28;33981;-79
2022/04/21 05:01:18;;;;;;;2.00;1.80;;;4.10;25.70;;;;;;4981967;28;34052;-78
2022/04/21 05:03:44;;;;;;;3.35;2.20;;;4.10;25.90;;;;;;4969309;28;35143;-79
2022/04/21 05:06:10;;;;;;;7.45;2.20;;;4.10;26.00;;;;;;4953841;28;34276;-78
2022/04/21 05:08:35;;;;;;;4.75;2.30;;;4.20;26.10;;;;;;4967413;28;34216;-78
2022/04/21 05:11:03;;;;;;;2.30;1.90;;;4.20;26.10;;;;;;4951509;28;34137;-78
2022/04/21 05:13:30;;;;;;;2.60;2.35;;;4.20;26.60;;;;;;4952596;28;35793;-78
2022/04/21 05:15:56;;;;;;;2.33;2.13;;;4.30;26.70;;;;;;4967159;28;34205;-78
2022/04/21 05:18:22;;;;;;;3.70;2.33;;;4.30;26.60;;;;;;4951404;28;34443;-79
2022/04/21 05:20:48;;;;;;;2.55;2.35;;;4.30;27.00;;;;;;4967321;28;34156;-78
2022/04/21 05:23:17;;;;;;;3.97;2.45;;;4.40;27.10;;;;;;4951026;28;36465;-78
2022/04/21 05:25:43;;;;;;;3.40;2.85;;;4.40;28.30;;;;;;4950414;28;34255;-77
2022/04/21 05:28:09;;;;;;;4.38;2.10;;;4.50;27.50;;;;;;4950088;28;34236;-77
2022/04/21 05:33:22;;;;;;;2.25;2.05;;;4.70;27.60;;;;;;4984303;28;34270;-78
2022/04/21 05:35:48;;;;;;;4.47;2.63;;;4.80;28.20;;;;;;4967162;28;34233;-77
2022/04/21 05:38:16;;;;;;;4.25;2.50;;;5.00;27.30;;;;;;4984327;28;34229;-78
2022/04/21 05:40:43;;;;;;;3.25;2.75;;;5.10;26.80;;;;;;4966983;28;34134;-78
2022/04/21 05:43:12;;;;;;;4.68;2.30;;;5.30;26.70;;;;;;4952901;28;36030;-77
2022/04/21 05:45:38;;;;;;;6.60;2.63;;;5.50;27.10;;;;;;4953625;28;34336;-77
2022/04/21 05:48:05;;;;;;;4.45;2.85;;;5.60;26.30;;;;;;4971661;28;34577;-78
2022/04/21 05:50:31;;;;;;;3.72;2.92;;;5.80;26.10;;;;;;4970413;28;34360;-78
2022/04/21 05:53:03;;;;;;;3.25;2.95;;;6.00;25.80;;;;;;4970662;28;35914;-78
2022/04/21 05:55:29;;;;;;;2.72;2.50;;;6.20;25.70;;;;;;4956489;28;34218;-78
2022/04/21 05:57:56;;;;;;;3.13;2.50;;;6.40;25.30;;;;;;4969302;28;34195;-78
2022/04/21 06:00:22;;;;;;;3.03;2.72;;;6.70;25.10;;;;;;4970881;28;34299;-78
2022/04/21 06:02:48;;;;;;;5.68;2.92;;;7.10;24.60;;;;;;4952900;28;35814;-77
2022/04/21 06:05:14;;;;;;;5.82;2.88;;;7.70;24.10;;;;;;4971111;28;34065;-79
2022/04/21 06:07:40;;;;;;;3.78;2.85;;;8.30;22.80;;;;;;4970423;28;34270;-78
2022/04/21 06:10:06;;;;;;;3.30;2.90;;;9.00;21.70;;;;;;4971053;28;34487;-78
2022/04/21 06:12:34;;;;;;;2.78;2.45;;;9.80;20.40;;;;;;4954740;28;35670;-79
2022/04/21 06:15:00;;;;;;;3.33;2.90;;;10.60;19.20;;;;;;4970726;28;34213;-78
2022/04/21 06:17:26;;;;;;;4.65;2.67;;;11.40;18.50;;;;;;4957426;28;34147;-79
2022/04/21 06:19:52;;;;;;;3.55;2.40;;;12.10;17.60;;;;;;4968572;28;34189;-79
2022/04/21 06:22:18;;;;;;;3.42;2.63;;;12.80;16.80;;;;;;4967478;28;36280;-78
2022/04/21 06:24:44;;;;;;;3.00;2.63;;;13.50;16.20;;;;;;4951651;28;34082;-79
2022/04/21 06:27:09;;;;;;;2.92;2.28;;;14.10;15.80;;;;;;4967566;28;34032;-78
2022/04/21 06:29:36;;;;;;;2.80;2.30;;;14.70;15.20;;;;;;4950314;28;34552;-78
2022/04/21 06:32:02;;;;;;;3.38;2.47;;;15.20;14.80;;;;;;4950871;28;35759;-79
2022/04/21 06:34:28;;;;;;;6.53;2.35;;;15.60;14.20;;;;;;4951042;28;34135;-79
2022/04/21 06:36:54;;;;;;;4.25;2.53;;;16.10;13.70;;;;;;4951535;28;34195;-78
2022/04/21 06:39:19;;;;;;;3.88;3.47;;;16.40;13.00;;;;;;4950303;28;34160;-78
2022/04/21 06:41:45;;;;;;;2.92;2.63;;;16.90;13.10;;;;;;4933828;28;36213;-78
2022/04/21 06:49:33;;;;;;;3.08;2.50;;;18.00;11.60;;;;;;4951140;28;34163;-78
2022/04/21 06:51:59;;;;;;;3.22;2.20;;;18.30;11.20;;;;;;4949722;28;34944;-78
2022/04/21 06:54:25;;;;;;;2.33;2.00;;;18.50;10.60;;;;;;4949030;28;34335;-77
2022/04/21 06:56:51;;;;;;;3.38;2.30;;;18.80;10.20;;;;;;4965774;28;34302;-79
2022/04/21 06:59:17;;;;;;;2.72;2.50;;;19.10;10.10;;;;;;4965962;28;34088;-78
2022/04/21 07:01:46;;;;;;;10.38;2.92;;;19.30;9.60;;;;;;4949802;28;36242;-79
2022/04/21 07:04:13;;;;;;;2.63;2.30;;;19.40;9.30;;;;;;4967346;28;34191;-78
2022/04/21 07:06:39;;;;;;;3.28;2.30;;;19.50;9.20;;;;;;4950003;28;34077;-78
2022/04/21 07:09:05;;;;;;;2.22;2.03;;;19.60;9.10;;;;;;4966015;28;34068;-79
2022/04/21 07:11:31;;;;;;;3.50;1.90;;;19.60;9.10;;;;;;4966417;28;35523;-78
2022/04/21 07:13:57;;;;;;;5.10;2.28;;;19.40;8.80;;;;;;4950004;28;34199;-78
2022/04/21 07:16:24;;;;;;;2.85;2.28;;;19.30;9.00;;;;;;4965385;28;34300;-78
2022/04/21 07:18:50;;;;;;;3.42;2.05;;;19.20;9.00;;;;;;4967004;28;34491;-78
2022/04/21 07:21:16;;;;;;;2.53;2.20;;;19.00;8.80;;;;;;4949347;28;35567;-78
2022/04/21 07:23:42;;;;;;;2.92;2.20;;;18.90;9.20;;;;;;4950972;28;34199;-79
2022/04/21 07:26:08;;;;;;;6.35;2.25;;;18.80;9.00;;;;;;4949866;28;34342;-78
2022/04/21 07:28:34;;;;;;;3.92;2.20;;;18.70;9.40;;;;;;4950480;28;34116;-77
2022/04/21 07:31:00;;;;;;;3.92;2.30;;;18.50;9.70;;;;;;4966169;28;36256;-78
2022/04/21 07:33:26;;;;;;;3.15;2.10;;;18.40;9.80;;;;;;4965191;28;34219;-78
2022/04/21 07:35:52;;;;;;;4.68;1.83;;;18.20;9.80;;;;;;4966671;28;34126;-78
2022/04/21 07:38:18;;;;;;;3.88;3.25;;;18.10;9.90;;;;;;4951702;28;34233;-78
2022/04/21 07:40:47;;;;;;;2.45;2.10;;;18.00;10.10;;;;;;4965979;28;35614;-78
2022/04/21 07:43:13;;;;;;;6.30;4.78;;;17.70;10.20;;;;;;4950882;28;34322;-78
2022/04/21 07:45:41;;;;;;;4.28;3.25;;;17.60;10.40;;;;;;4934291;28;34195;-77
2022/04/21 07:48:07;;;;;;;3.22;2.92;;;17.50;8.70;;;;;;4950259;28;34621;-78
2022/04/21 07:50:34;;;;;;;5.97;2.03;;;17.60;10.40;;;;;;4949435;28;35994;-78
2022/04/21 07:55:45;;;;;;;3.17;1.90;;;17.60;10.30;;;;;;4967013;28;34139;-78
2022/04/21 07:58:11;;;;;;;3.47;2.20;;;17.70;9.90;;;;;;4950533;28;34465;-78
2022/04/21 08:00:38;;;;;;;2.08;1.80;;;17.70;10.20;;;;;;4949458;28;35900;-78
2022/04/21 08:03:06;;;;;;;2.85;1.88;;;17.80;10.00;;;;;;4966837;28;33601;-77
2022/04/21 08:05:33;;;;;;;1.80;1.70;;;17.80;9.70;;;;;;4949735;28;34145;-77
2022/04/21 08:07:59;;;;;;;2.72;1.90;;;17.90;9.90;;;;;;4950597;28;34319;-76
2022/04/21 08:10:29;;;;;;;3.65;1.80;;;17.90;8.50;;;;;;4950043;28;34245;-78
2022/04/21 08:12:58;;;;;;;6.55;2.30;;;17.90;9.40;;;;;;4943610;28;34118;-77
2022/04/21 08:15:27;;;;;;;2.83;2.05;;;17.70;9.40;;;;;;4966760;28;34197;-80
2022/04/21 08:17:56;;;;;;;2.80;2.40;;;17.70;9.40;;;;;;4967386;28;34005;-75
2022/04/21 08:20:23;;;;;;;3.45;2.38;;;17.60;8.00;;;;;;4950275;28;36912;-79
2022/04/21 08:22:49;;;;;;;2.55;2.15;;;17.60;9.30;;;;;;4968689;28;34306;-77
2022/04/21 08:33:19;;;;;;;3.38;2.00;;;17.60;9.00;;;;;;4965910;28;34329;-78
2022/04/21 08:35:47;;;;;;;4.78;2.38;;;17.90;9.00;;;;;;4949603;28;34201;-79
2022/04/21 08:38:13;;;;;;;2.58;1.88;;;18.30;8.80;;;;;;4983995;28;34060;-78
2022/04/21 08:40:51;;;;;;;2.35;1.73;;;18.40;8.60;;;;;;4986473;28;35060;-78
2022/04/21 08:43:17;;;;;;;10.65;2.15;;;18.60;5.90;;;;;;4953767;28;34139;-78
2022/04/21 08:45:44;;;;;;;2.15;1.90;;;18.60;7.90;;;;;;4969940;28;34475;-76
2022/04/21 08:48:11;;;;;;;7.53;2.47;;;18.70;7.90;;;;;;4953036;28;34177;-78
2022/04/21 08:50:38;;;;;;;2.40;1.85;;;18.70;7.90;;;;;;4970523;28;34313;-76
2022/04/21 08:53:06;;;;;;;2.53;1.85;;;18.60;7.90;;;;;;4987819;28;34157;-78
2022/04/21 08:55:33;;;;;;;3.80;2.05;;;18.60;7.30;;;;;;4980355;28;34241;-79
2022/04/21 08:58:00;;;;;;;4.32;1.77;;;18.60;7.50;;;;;;4985740;28;33762;-80
2022/04/21 09:00:26;;;;;;;2.55;2.03;;;18.50;7.40;;;;;;4990478;28;34249;-77
2022/04/21 09:02:53;;;;;;;2.15;1.83;;;18.60;7.50;;;;;;4973865;28;34261;-79
2022/04/21 09:05:22;;;;;;;2.60;1.75;;;18.60;7.60;;;;;;4970449;28;34029;-79
2022/04/21 09:07:50;;;;;;;2.47;1.60;;;18.60;7.20;;;;;;4983807;28;34483;-78
2022/04/21 09:10:18;;;;;;;2.38;1.85;;;18.80;7.00;;;;;;4953606;28;35667;-79
2022/04/21 09:12:50;;;;;;;2.75;1.98;;;18.80;7.10;;;;;;4988150;28;34144;-80
2022/04/21 09:15:17;;;;;;;2.25;1.70;;;19.00;6.90;;;;;;4953795;28;34219;-79
2022/04/21 09:17:51;;;;;;;2.80;1.83;;;19.30;7.30;;;;;;4974053;28;34111;-78
2022/04/21 09:20:20;;;;;;;5.32;1.90;;;19.40;7.10;;;;;;4977136;28;35914;-78
2022/04/21 09:22:54;;;;;;;2.15;1.83;;;19.30;6.10;;;;;;4979009;28;34186;-78
2022/04/21 09:25:24;;;;;;;1.88;1.55;;;19.30;6.10;;;;;;4970139;28;33986;-79
2022/04/21 09:27:51;;;;;;;2.53;1.77;;;19.40;6.80;;;;;;4969397;28;34565;-78
2022/04/21 09:30:17;;;;;;;2.33;1.90;;;19.40;6.60;;;;;;4967317;28;36350;-79
2022/04/21 09:33:00;;;;;;;2.38;1.95;;;19.60;6.70;;;;;;4969034;28;34409;-78
2022/04/21 09:35:28;;;;;;;1.65;1.55;;;19.60;3.60;;;;;;4970334;28;34127;-78
2022/04/21 09:37:56;;;;;;;2.20;1.80;;;19.80;6.20;;;;;;4954722;28;34100;-78
2022/04/21 09:40:24;;;;;;;2.95;1.75;;;19.60;5.20;;;;;;4952340;28;35586;-77
2022/04/21 09:43:05;;;;;;;2.15;1.67;;;19.70;6.30;;;;;;4969073;28;34468;-77
2022/04/21 09:48:17;;;;;;;3.40;1.80;;;19.80;4.80;;;;;;4982876;28;34465;-78
2022/04/21 09:50:49;;;;;;;1.80;1.70;;;20.00;6.10;;;;;;4984224;28;34455;-78
2022/04/21 09:53:17;;;;;;;2.05;1.80;;;20.40;6.50;;;;;;4970401;28;34235;-77
2022/04/21 09:55:44;;;;;;;2.15;1.80;;;20.40;5.50;;;;;;4970098;28;33970;-77
2022/04/21 09:58:10;;;;;;;2.33;1.80;;;20.60;5.50;;;;;;4970276;28;34428;-80
2022/04/21 10:00:38;;;;;;;1.95;1.67;;;20.40;5.50;;;;;;4966980;28;36969;-77
2022/04/21 10:03:06;;;;;;;1.95;1.73;;;20.50;4.90;;;;;;4987577;28;34261;-81
2022/04/21 10:05:34;;;;;;;3.33;1.75;;;20.50;4.80;;;;;;4972425;28;34198;-79
2022/04/21 10:08:02;;;;;;;2.70;1.58;;;20.70;4.80;;;;;;4971268;28;34397;-77
2022/04/21 10:10:30;;;;;;;1.67;1.58;;;20.70;4.90;;;;;;4986827;28;36046;-78
2022/04/21 10:12:59;;;;;;;1.75;1.65;;;20.80;5.10;;;;;;4954318;28;34260;-76
2022/04/21 10:15:44;;;;;;;1.70;1.40;;;20.90;5.20;;;;;;4956705;28;34319;-77
2022/04/21 10:18:15;;;;;;;2.80;1.50;;;20.80;1.00;;;;;;4988846;28;34375;-80
2022/04/21 10:20:42;;;;;;;2.38;1.83;;;20.80;4.20;;;;;;4972152;28;35669;-79
2022/04/21 10:23:14;;;;;;;3.22;1.40;;;20.80;5.00;;;;;;4972960;28;34120;-78
2022/04/21 10:25:41;;;;;;;2.50;1.50;;;20.90;3.70;;;;;;4974587;28;34100;-77
2022/04/21 10:28:37;;;;;;;2.58;1.52;;;21.00;5.10;;;;;;4968501;28;34392;-78
2022/04/21 10:31:28;;;;;;;1.42;1.33;;;21.30;1.90;;;;;;4965951;28;35533;-77
2022/04/21 10:34:00;;;;;;;1.48;1.25;;;21.40;2.20;;;;;;4969381;28;34224;-77
2022/04/21 10:36:42;;;;;;;1.48;1.27;;;21.40;3.00;;;;;;4970008;28;33761;-77
2022/04/21 10:39:11;;;;;;;3.05;1.30;;;21.40;1.50;;;;;;4988598;28;33849;-78
2022/04/21 10:41:38;;;;;;;1.40;1.30;;;21.40;3.60;;;;;;4970373;28;35937;-79
2022/04/21 10:44:12;;;;;;;1.52;1.25;;;21.40;3.90;;;;;;4953578;28;34260;-79
2022/04/21 10:46:37;;;;;;;1.55;1.00;;;21.50;4.00;;;;;;4954483;28;34253;-80
2022/04/21 10:49:03;;;;;;;1.10;1.00;;;21.70;4.10;;;;;;4954448;28;34201;-76
2022/04/21 10:58:20;;;;;;;0.95;0.88;;;21.70;1.00;;;;;;4977228;28;34216;-78
2022/04/21 11:01:07;;;;;;;1.27;0.95;;;21.80;2.80;;;;;;4955155;28;34108;-77
2022/04/21 11:03:33;;;;;;;1.40;0.93;;;21.90;1.00;;;;;;4957522;28;36834;-79
2022/04/21 11:06:15;;;;;;;1.52;1.05;;;22.10;2.60;;;;;;4970601;28;34406;-79
2022/04/21 11:08:42;;;;;;;1.00;0.90;;;22.20;1.00;;;;;;4970068;28;34115;-79
2022/04/21 11:11:08;;;;;;;2.28;1.13;;;22.10;1.70;;;;;;4970007;28;34082;-76
2022/04/21 11:13:51;;;;;;;3.38;1.00;;;22.10;2.00;;;;;;4954143;28;35766;-77
2022/04/21 11:16:48;;;;;;;0.90;0.80;;;21.90;1.00;;;;;;4970204;28;34160;-78
2022/04/21 11:19:31;;;;;;;1.15;0.98;;;22.10;1.00;;;;;;4971152;28;34068;-77
2022/04/21 11:22:00;;;;;;;0.90;0.82;;;22.20;1.00;;;;;;4971261;28;34432;-79
2022/04/21 11:24:27;;;;;;;1.05;0.95;;;22.20;1.10;;;;;;4969305;28;35877;-80
2022/04/21 11:26:55;;;;;;;2.55;1.20;;;22.20;1.40;;;;;;4971035;28;34272;-78
2022/04/21 11:29:21;;;;;;;2.35;1.02;;;22.20;1.00;;;;;;4970677;28;34082;-78
2022/04/21 11:31:47;;;;;;;2.15;1.10;;;22.20;1.00;;;;;;4955896;28;34315;-77
2022/04/21 11:34:22;;;;;;;0.80;0.80;;;22.20;1.00;;;;;;4969961;28;35569;-79
2022/04/21 11:36:48;;;;;;;0.80;0.80;;;22.10;1.00;;;;;;4971368;28;34034;-79
2022/04/21 11:39:15;;;;;;;0.95;0.93;;;22.10;1.00;;;;;;4969761;28;34277;-79
2022/04/21 11:41:44;;;;;;;0.90;0.90;;;21.80;1.00;;;;;;4969207;28;34271;-78
2022/04/21 11:44:10;;;;;;;0.85;0.80;;;21.90;1.00;;;;;;4954212;28;35711;-78
2022/04/21 11:46:39;;;;;;;0.80;0.80;;;22.10;1.00;;;;;;4970746;28;34135;-79
2022/04/21 11:49:07;;;;;;;1.23;1.10;;;22.20;1.00;;;;;;4970867;28;34273;-79
2022/04/21 11:51:33;;;;;;;2.22;0.82;;;22.20;1.00;;;;;;4955667;28;34675;-78
2022/04/21 11:54:08;;;;;;;2.05;0.98;;;22.30;1.00;;;;;;4988048;28;34277;-78
2022/04/21 11:56:34;;;;;;;1.08;0.90;;;22.10;1.00;;;;;;4954241;28;34296;-78
2022/04/21 11:59:09;;;;;;;1.35;0.82;;;22.40;1.00;;;;;;4969914;28;34100;-79
2022/04/21 12:07:00;;;;;;;1.15;0.80;;;22.50;1.00;;;;;;4985623;28;34097;-77
2022/04/21 12:09:29;;;;;;;1.50;0.93;;;22.70;1.00;;;;;;4969071;28;34181;-78
2022/04/21 12:11:57;;;;;;;0.88;0.88;;;22.60;1.00;;;;;;4954030;28;34361;-78
2022/04/21 12:14:24;;;;;;;1.05;0.98;;;22.70;1.00;;;;;;4969676;28;36396;-78
2022/04/21 12:16:53;;;;;;;3.60;0.90;;;22.80;1.00;;;;;;4985243;28;34354;-78
2022/04/21 12:19:32;;;;;;;1.92;1.10;;;22.90;1.00;;;;;;4987545;28;34272;-78
2022/04/21 12:22:07;;;;;;;1.38;0.80;;;22.90;1.00;;;;;;4953078;28;34099;-79
2022/04/21 12:24:38;;;;;;;3.30;0.90;;;23.00;1.00;;;;;;4954656;28;35986;-79
2022/04/21 12:27:13;;;;;;;1.42;1.10;;;23.10;1.00;;;;;;4970882;28;34170;-79
2022/04/21 12:29:51;;;;;;;4.68;1.40;;;23.00;1.00;;;;;;4953893;28;34379;-78
2022/04/21 12:32:21;;;;;;;2.35;1.23;;;22.80;1.00;;;;;;4953527;28;34008;-79
2022/04/21 12:34:47;;;;;;;2.10;1.10;;;22.70;1.00;;;;;;4952135;28;35639;-78
2022/04/21 12:37:13;;;;;;;5.07;1.02;;;22.70;1.00;;;;;;4952712;28;34075;-77
2022/04/21 12:39:40;;;;;;;1.38;0.95;;;22.80;1.00;;;;;;4953556;28;34106;-78
2022/04/21 12:42:07;;;;;;;1.58;1.02;;;22.70;1.00;;;;;;4969172;28;34001;-78
2022/04/21 12:44:33;;;;;;;2.33;1.02;;;22.60;1.00;;;;;;4967959;28;34641;-77
2022/04/21 12:47:02;;;;;;;1.45;1.05;;;22.60;1.00;;;;;;4968752;28;34290;-79
2022/04/21 12:50:00;;;;;;;8.05;1.88;;;22.60;1.00;;;;;;4986241;28;34162;-78
2022/04/21 12:52:42;;;;;;;3.38;1.70;;;22.70;1.00;;;;;;4989464;28;34242;-77
2022/04/21 12:55:22;;;;;;;3.15;1.38;;;22.80;1.00;;;;;;4972020;28;36077;-79
2022/04/21 12:58:13;;;;;;;2.30;1.50;;;22.80;1.00;;;;;;4970871;28;34630;-78
2022/04/21 13:00:41;;;;;;;4.22;1.25;;;22.80;1.00;;;;;;4987951;28;34189;-78
2022/04/21 13:03:10;;;;;;;1.67;1.25;;;22.80;1.00;;;;;;4972033;28;34276;-77
2022/04/21 13:05:50;;;;;;;2.30;1.33;;;22.70;1.00;;;;;;4988324;28;34311;-78
2022/04/21 13:08:20;;;;;;;2.78;1.70;;;22.70;1.00;;;;;;4968967;28;34179;-79
2022/04/21 13:10:47;;;;;;;5.47;1.48;;;22.70;1.00;;;;;;4962600;28;34402;-77
2022/04/21 13:13:13;;;;;;;2.22;1.42;;;22.80;1.10;;;;;;4986418;28;34322;-79
2022/04/21 13:15:39;;;;;;;2.28;1.30;;;22.80;1.20;;;;;;4986049;28;35772;-77
2022/04/21 13:18:05;;;;;;;1.55;1.40;;;22.80;1.20;;;;;;4973612;28;33985;-79
2022/04/21 13:23:16;;;;;;;5.82;1.50;;;22.80;1.10;;;;;;4969215;28;34305;-77
2022/04/21 13:25:43;;;;;;;2.20;1.20;;;22.70;1.50;;;;;;4968747;28;35786;-78
2022/04/21 13:28:09;;;;;;;4.95;1.60;;;22.60;1.00;;;;;;4970846;28;34275;-77
2022/04/21 13:30:35;;;;;;;2.03;1.40;;;22.60;1.40;;;;;;4969391;28;34217;-76
2022/04/21 13:35:46;;;;;;;1.98;1.10;;;22.60;1.70;;;;;;4971243;28;34259;-78
2022/04/21 13:38:12;;;;;;;1.45;1.35;;;22.50;1.70;;;;;;4970682;28;34400;-77
2022/04/21 13:40:37;;;;;;;2.55;1.23;;;22.40;1.90;;;;;;4970878;28;34567;-77
2022/04/21 13:43:04;;;;;;;1.58;1.20;;;22.40;1.90;;;;;;4953649;28;34358;-78
2022/04/21 13:45:29;;;;;;;2.45;1.20;;;22.30;1.90;;;;;;4954372;28;35937;-79
2022/04/21 13:47:57;;;;;;;1.98;1.50;;;22.10;1.10;;;;;;4971300;28;34283;-80
2022/04/21 13:50:23;;;;;;;2.60;1.50;;;22.20;2.00;;;;;;4971124;28;34130;-80
2022/04/21 13:52:49;;;;;;;3.53;1.38;;;22.20;2.10;;;;;;4972783;28;34127;-80
2022/04/21 13:55:15;;;;;;;2.03;1.50;;;22.30;2.20;;;;;;4953694;28;35735;-79
2022/04/21 13:57:41;;;;;;;2.42;1.50;;;22.50;2.00;;;;;;4969733;28;34171;-79
2022/04/21 14:00:07;;;;;;;2.63;1.45;;;22.60;2.00;;;;;;4985055;28;34274;-79
2022/04/21 14:02:33;;;;;;;3.10;1.42;;;22.60;1.90;;;;;;4969863;28;34328;-79